createdAt,value
2023-01-22T00:03:36.692Z,100715.81
2023-01-22T00:07:38.235Z,100719.03
2023-01-22T00:11:39.777Z,100717.84
2023-01-22T00:15:41.319Z,100715.13
2023-01-22T00:19:43.527Z,100712.44
2023-01-22T00:23:45.133Z,100719.22
2023-01-22T00:27:46.618Z,100712.59
2023-01-22T00:31:48.214Z,100700.09
2023-01-22T00:35:49.779Z,100703.47
2023-01-22T00:39:51.280Z,100697.56
2023-01-22T00:43:53.135Z,100694.66
2023-01-22T00:47:54.708Z,100695.69
2023-01-22T00:51:56.237Z,100688.03
2023-01-22T00:56:00.215Z,100686.03
2023-01-22T01:00:02.552Z,100689.94
2023-01-22T01:04:05.580Z,100688.41
2023-01-22T01:08:07.523Z,100688.06
2023-01-22T01:12:09.420Z,100685.34
2023-01-22T01:16:17.804Z,100688.41
2023-01-22T01:20:23.098Z,100694.50
2023-01-22T01:24:24.742Z,100687.75
2023-01-22T01:28:28.795Z,100682.13
2023-01-22T01:32:32.307Z,100685.50
2023-01-22T01:36:48.408Z,100690.28
2023-01-22T01:40:51.954Z,100685.38
2023-01-22T01:45:19.268Z,100680.44
2023-01-22T01:49:32.992Z,100680.09
2023-01-22T01:53:36.248Z,100679.94
2023-01-22T01:57:40.088Z,100684.00
2023-01-22T02:01:42.266Z,100677.22
2023-01-22T02:05:43.892Z,100677.22
2023-01-22T02:09:47.089Z,100683.81
2023-01-22T02:13:57.869Z,100668.38
2023-01-22T02:18:00.600Z,100668.72
2023-01-22T02:22:02.396Z,100670.59
2023-01-22T02:26:04.575Z,100669.91
2023-01-22T02:30:06.996Z,100675.50
2023-01-22T02:34:10.998Z,100674.84
2023-01-22T02:38:14.207Z,100666.16
2023-01-22T02:42:16.262Z,100667.38
2023-01-22T02:46:18.826Z,100665.31
2023-01-22T02:50:20.647Z,100665.16
2023-01-22T02:54:22.334Z,100665.66
2023-01-22T02:58:25.111Z,100670.41
2023-01-22T03:02:27.042Z,100663.13
2023-01-22T03:06:29.998Z,100657.19
2023-01-22T03:10:34.718Z,100657.84
2023-01-22T03:14:55.071Z,100665.31
2023-01-22T03:19:15.344Z,100671.41
2023-01-22T03:23:17.452Z,100660.56
2023-01-22T03:27:23.799Z,100665.97
2023-01-22T03:31:25.943Z,100657.69
2023-01-22T03:35:27.632Z,100650.38
2023-01-22T03:39:42.873Z,100658.34
2023-01-22T03:43:49.925Z,100654.78
2023-01-22T03:47:55.196Z,100655.63
2023-01-22T03:52:04.462Z,100652.06
2023-01-22T03:56:09.069Z,100656.31
2023-01-22T04:00:13.834Z,100660.56
2023-01-22T04:04:19.162Z,100658.88
2023-01-22T04:08:22.574Z,100654.78
2023-01-22T04:12:24.355Z,100664.66
2023-01-22T04:16:26.490Z,100660.22
2023-01-22T04:20:42.392Z,100670.75
2023-01-22T04:24:55.185Z,100666.16
2023-01-22T04:28:56.815Z,100675.00
2023-01-22T04:32:59.724Z,100673.47
2023-01-22T04:37:06.736Z,100670.09
2023-01-22T04:41:10.248Z,100670.22
2023-01-22T04:45:12.947Z,100673.47
2023-01-22T04:49:14.587Z,100676.50
2023-01-22T04:53:17.763Z,100673.13
2023-01-22T04:57:21.178Z,100681.94
2023-01-22T05:01:25.057Z,100676.16
2023-01-22T05:05:28.105Z,100679.22
2023-01-22T05:09:29.862Z,100680.59
2023-01-22T05:13:35.513Z,100687.06
2023-01-22T05:17:37.160Z,100679.25
2023-01-22T05:21:38.966Z,100686.34
2023-01-22T05:25:46.871Z,100688.06
2023-01-22T05:29:48.649Z,100691.78
2023-01-22T05:34:06.508Z,100698.25
2023-01-22T05:38:08.208Z,100696.22
2023-01-22T05:42:15.145Z,100697.56
2023-01-22T05:46:18.985Z,100706.56
2023-01-22T05:50:40.840Z,100698.41
2023-01-22T05:54:45.051Z,100697.22
2023-01-22T05:58:46.771Z,100705.22
2023-01-22T06:02:49.248Z,100708.78
2023-01-22T06:06:50.950Z,100701.31
2023-01-22T06:11:01.798Z,100705.56
2023-01-22T06:15:04.062Z,100707.28
2023-01-22T06:19:06.161Z,100704.56
2023-01-22T06:23:14.216Z,100710.97
2023-01-22T06:27:16.268Z,100712.53
2023-01-22T06:31:34.494Z,100712.88
2023-01-22T06:35:37.794Z,100716.63
2023-01-22T06:39:39.766Z,100716.94
2023-01-22T06:43:53.876Z,100723.38
2023-01-22T06:47:55.512Z,100730.34
2023-01-22T06:51:57.070Z,100730.84
2023-01-22T06:55:59.677Z,100739.00
2023-01-22T07:00:01.853Z,100738.66
2023-01-22T07:04:03.546Z,100736.78
2023-01-22T07:08:05.442Z,100746.66
2023-01-22T07:12:07.076Z,100748.53
2023-01-22T07:16:08.770Z,100754.81
2023-01-22T07:20:11.088Z,100759.72
2023-01-22T07:24:12.821Z,100769.59
2023-01-22T07:28:15.151Z,100770.44
2023-01-22T07:32:16.788Z,100767.03
2023-01-22T07:36:18.339Z,100775.16
2023-01-22T07:40:20.458Z,100778.94
2023-01-22T07:44:22.159Z,100777.06
2023-01-22T07:48:24.783Z,100779.78
2023-01-22T07:52:26.322Z,100777.56
2023-01-22T07:56:27.880Z,100793.53
2023-01-22T08:00:30.344Z,100802.88
2023-01-22T08:04:32.022Z,100803.56
2023-01-22T08:08:33.562Z,100803.59
2023-01-22T08:12:37.259Z,100811.53
2023-01-22T08:16:38.912Z,100821.94
2023-01-22T08:20:40.515Z,100823.63
2023-01-22T08:24:42.775Z,100817.84
2023-01-22T08:28:44.419Z,100829.03
2023-01-22T08:32:46.741Z,100831.09
2023-01-22T08:36:48.360Z,100832.13
2023-01-22T08:40:50.757Z,100844.88
2023-01-22T08:44:52.385Z,100846.22
2023-01-22T08:48:54.058Z,100845.38
2023-01-22T08:52:58.719Z,100846.72
2023-01-22T08:57:00.491Z,100838.75
2023-01-22T09:01:02.212Z,100843.81
2023-01-22T09:05:03.995Z,100847.06
2023-01-22T09:09:06.512Z,100840.06
2023-01-22T09:13:08.209Z,100845.34
2023-01-22T09:17:09.806Z,100839.88
2023-01-22T09:21:11.394Z,100852.13
2023-01-22T09:25:13.294Z,100860.97
2023-01-22T09:29:15.073Z,100859.09
2023-01-22T09:33:16.863Z,100865.53
2023-01-22T09:37:18.638Z,100868.94
2023-01-22T09:41:24.578Z,100879.66
2023-01-22T09:45:26.988Z,100876.06
2023-01-22T09:49:58.744Z,100870.06
2023-01-22T09:54:03.302Z,100876.31
2023-01-22T09:58:10.852Z,100882.09
2023-01-22T10:02:36.927Z,100875.34
2023-01-22T10:06:40.443Z,100875.31
2023-01-22T10:10:42.607Z,100871.56
2023-01-22T10:14:44.501Z,100876.00
2023-01-22T10:18:50.525Z,100869.00
2023-01-22T10:22:55.786Z,100870.47
2023-01-22T10:26:59.012Z,100870.91
2023-01-22T10:31:04.550Z,100877.72
2023-01-22T10:35:16.923Z,100865.13
2023-01-22T10:39:20.934Z,100881.16
2023-01-22T10:43:31.625Z,100875.31
2023-01-22T10:47:33.495Z,100875.19
2023-01-22T10:51:41.360Z,100884.22
2023-01-22T10:55:43.182Z,100888.91
2023-01-22T10:59:50.174Z,100872.72
2023-01-22T11:03:51.795Z,100877.84
2023-01-22T11:07:58.872Z,100876.78
2023-01-22T11:12:13.557Z,100877.06
2023-01-22T11:16:19.627Z,100880.94
2023-01-22T11:20:25.964Z,100886.81
2023-01-22T11:24:47.278Z,100884.59
2023-01-22T11:29:10.777Z,100895.06
2023-01-22T11:33:20.912Z,100891.91
2023-01-22T11:37:48.878Z,100888.59
2023-01-22T11:42:02.946Z,100877.59
2023-01-22T11:46:46.761Z,100877.69
2023-01-22T11:50:56.077Z,100879.63
2023-01-22T11:55:17.566Z,100871.75
2023-01-22T11:59:52.079Z,100868.94
2023-01-22T12:03:53.661Z,100877.13
2023-01-22T12:08:13.018Z,100869.53
2023-01-22T12:12:51.610Z,100853.47
2023-01-22T12:17:28.040Z,100856.25
2023-01-22T12:21:47.464Z,100858.38
2023-01-22T12:25:57.409Z,100849.56
2023-01-22T12:30:12.133Z,100861.13
2023-01-22T12:34:23.500Z,100865.94
2023-01-22T12:38:57.388Z,100858.69
2023-01-22T12:43:20.499Z,100858.56
2023-01-22T12:47:38.349Z,100860.16
2023-01-22T12:51:42.793Z,100854.72
2023-01-22T12:55:45.138Z,100861.75
2023-01-22T12:59:51.754Z,100863.34
2023-01-22T13:04:02.007Z,100865.41
2023-01-22T13:08:21.851Z,100872.81
2023-01-22T13:12:28.880Z,100873.19
2023-01-22T13:16:38.373Z,100864.03
2023-01-22T13:20:52.229Z,100877.09
2023-01-22T13:24:56.973Z,100874.84
2023-01-22T13:29:02.364Z,100877.84
2023-01-22T13:33:15.476Z,100888.84
2023-01-22T13:37:27.133Z,100881.31
2023-01-22T13:41:38.982Z,100888.13
2023-01-22T13:45:47.662Z,100892.38
2023-01-22T13:49:49.732Z,100903.47
2023-01-22T13:53:54.808Z,100897.69
2023-01-22T13:57:58.578Z,100896.38
2023-01-22T14:02:00.585Z,100894.72
2023-01-22T14:06:22.524Z,100895.50
2023-01-22T14:10:25.503Z,100896.59
2023-01-22T14:14:37.926Z,100905.28
2023-01-22T14:18:40.066Z,100903.25
2023-01-22T14:22:41.684Z,100901.06
2023-01-22T14:26:43.369Z,100903.81
2023-01-22T14:30:46.156Z,100912.34
2023-01-22T14:34:47.712Z,100914.75
2023-01-22T14:38:52.837Z,100905.41
2023-01-22T14:42:54.710Z,100905.75
2023-01-22T14:46:57.241Z,100912.25
2023-01-22T14:50:59.882Z,100913.56
2023-01-22T14:55:01.602Z,100923.28
2023-01-22T14:59:04.633Z,100926.03
2023-01-22T15:03:06.408Z,100922.81
2023-01-22T15:33:20.141Z,100947.25
2023-01-22T15:43:28.610Z,100965.66
2023-01-22T15:47:30.266Z,100968.38
2023-01-22T15:51:32.175Z,100973.16
2023-01-22T15:55:33.833Z,100969.75
2023-01-22T15:59:37.987Z,100970.09
2023-01-22T16:03:39.569Z,100969.41
2023-01-22T16:07:41.195Z,100970.28
2023-01-22T16:11:42.852Z,100968.75
2023-01-22T16:15:47.847Z,100975.41
2023-01-22T16:19:51.858Z,100980.16
2023-01-22T16:23:57.570Z,100984.75
2023-01-22T16:27:59.172Z,100984.75
2023-01-22T16:32:00.848Z,100981.84
2023-01-22T16:36:08.923Z,100987.16
2023-01-22T16:40:11.301Z,100988.34
2023-01-22T16:44:17.956Z,101001.63
2023-01-22T16:48:19.563Z,101002.00
2023-01-22T16:52:23.055Z,101006.91
2023-01-22T16:56:24.852Z,101011.34
2023-01-22T17:00:26.519Z,101015.25
2023-01-22T17:04:28.770Z,101008.47
2023-01-22T17:08:30.396Z,101016.94
2023-01-22T17:12:32.205Z,101011.34
2023-01-22T17:16:33.765Z,101021.38
2023-01-22T17:20:36.884Z,101028.38
2023-01-22T17:24:38.632Z,101021.91
2023-01-22T17:28:40.359Z,101026.50
2023-01-22T17:32:42.129Z,101022.56
2023-01-22T17:36:43.892Z,101033.13
2023-01-22T17:40:45.426Z,101039.94
2023-01-22T17:44:47.601Z,101029.72
2023-01-22T17:48:51.841Z,101041.63
2023-01-22T17:52:53.618Z,101050.13
2023-01-22T17:56:55.411Z,101049.44
2023-01-22T18:01:07.571Z,101050.47
2023-01-22T18:05:10.465Z,101055.41
2023-01-22T18:09:12.550Z,101062.03
2023-01-22T18:13:14.222Z,101065.78
2023-01-22T18:17:15.887Z,101067.50
2023-01-22T18:21:19.499Z,101065.28
2023-01-22T18:25:21.127Z,101081.47
2023-01-22T18:29:22.855Z,101076.00
2023-01-22T18:33:25.764Z,101075.13
2023-01-22T18:37:27.909Z,101082.31
2023-01-22T18:41:30.793Z,101085.38
2023-01-22T18:45:40.392Z,101079.91
2023-01-22T18:49:42.041Z,101087.72
2023-01-22T18:53:43.712Z,101085.84
2023-01-22T18:57:49.157Z,101084.50
2023-01-22T19:01:51.890Z,101088.22
2023-01-22T19:05:54.683Z,101083.81
2023-01-22T19:09:56.175Z,101100.47
2023-01-22T19:13:59.718Z,101096.06
2023-01-22T19:18:01.452Z,101095.22
2023-01-22T19:22:04.068Z,101102.69
2023-01-22T19:26:13.453Z,101106.94
2023-01-22T19:30:18.050Z,101117.47
2023-01-22T19:39:19.569Z,101120.53
2023-01-22T19:43:26.406Z,101134.13
2023-01-22T19:47:53.565Z,101136.50
2023-01-22T19:51:59.080Z,101132.25
2023-01-22T19:56:01.506Z,101135.34
2023-01-22T20:09:21.977Z,101140.59
2023-01-22T20:13:24.414Z,101144.63
2023-01-22T20:17:47.282Z,101149.25
2023-01-22T20:33:38.647Z,101140.88
2023-01-22T20:38:08.829Z,101138.53
2023-01-22T20:43:07.965Z,101144.63
2023-01-22T20:47:44.035Z,101153.50
2023-01-22T20:51:56.691Z,101158.09
2023-01-22T20:56:19.431Z,101165.75
2023-01-22T21:00:44.089Z,101158.44
2023-01-22T21:04:46.216Z,101155.72
2023-01-22T21:09:07.211Z,101157.41
2023-01-22T21:13:14.460Z,101155.72
2023-01-22T21:17:18.951Z,101154.84
2023-01-22T21:21:26.167Z,101156.69
2023-01-22T21:25:37.549Z,101165.41
2023-01-22T21:29:39.703Z,101162.16
2023-01-22T21:33:42.298Z,101163.66
2023-01-22T21:37:43.889Z,101166.22
2023-01-22T21:41:45.863Z,101169.75
2023-01-22T21:46:06.479Z,101165.84
2023-01-22T21:50:08.936Z,101157.69
2023-01-22T21:54:11.497Z,101163.66
2023-01-22T21:58:13.296Z,101158.75
2023-01-22T22:02:17.542Z,101166.75
2023-01-22T22:06:19.495Z,101164.19
2023-01-22T22:10:21.459Z,101182.03
2023-01-22T22:14:24.654Z,101181.19
2023-01-22T22:18:26.343Z,101178.28
2023-01-22T22:22:27.984Z,101180.63
2023-01-22T22:26:29.690Z,101184.91
2023-01-22T22:30:31.270Z,101186.44
2023-01-22T22:34:32.842Z,101192.59
2023-01-22T22:38:35.049Z,101194.94
2023-01-22T22:42:37.587Z,101197.66
2023-01-22T22:46:39.741Z,101189.50
2023-01-22T22:50:43.284Z,101198.81
2023-01-22T22:54:45.230Z,101201.72
2023-01-22T22:58:47.455Z,101206.78
2023-01-22T23:02:49.231Z,101209.50
2023-01-22T23:06:52.012Z,101205.41
2023-01-22T23:10:53.500Z,101196.88
2023-01-22T23:14:55.117Z,101201.63
2023-01-22T23:18:59.067Z,101202.97
2023-01-22T23:23:00.627Z,101199.53
2023-01-22T23:27:02.231Z,101201.28
2023-01-22T23:31:11.669Z,101205.31
2023-01-22T23:35:13.481Z,101207.19
2023-01-22T23:39:17.597Z,101204.28
2023-01-22T23:43:19.147Z,101206.84
2023-01-22T23:47:20.928Z,101207.50
2023-01-22T23:51:22.520Z,101209.91
2023-01-22T23:55:24.084Z,101211.06
2023-01-22T23:59:25.645Z,101197.31
